Time;durP1;ratioP1;P1;durP2;ratioP2;P2;SDS_P1;SDS_P2;PMS_P1;PMS_P2;Temp;Humidity;BMP_temperature;BMP_pressure;BME280_temperature;BME280_humidity;BME280_pressure;Samples;Min_cycle;Max_cycle;Signal;HPM_P1;HPM_P2
2023/02/10 00:00:10;;;;;;;;;;;;;;;2.56;41.61;100900.66;5060842;28;20330;-82
2023/02/10 00:02:36;;;;;;;;;;;;;;;2.55;41.49;100901.56;5059848;28;20457;-82
2023/02/10 00:05:01;;;;;;;;;;;;;;;2.56;41.57;100898.09;5044135;28;19921;-82
2023/02/10 00:07:26;;;;;;;;;;;;;;;2.54;41.75;100899.81;5042032;28;19917;-82
2023/02/10 00:09:52;;;;;;;;;;;;;;;2.56;41.28;100900.66;5045263;28;19925;-81
2023/02/10 00:12:17;;;;;;;;;;;;;;;2.56;41.04;100905.81;5063399;28;19970;-81
2023/02/10 00:14:42;;;;;;;;;;;;;;;2.54;41.41;100900.66;5049769;28;19925;-81
2023/02/10 00:17:07;;;;;;;;;;;;;;;2.54;41.44;100894.66;5062793;28;19924;-81
2023/02/10 00:19:33;;;;;;;;;;;;;;;2.54;41.11;100884.34;5047908;28;19920;-82
2023/02/10 00:21:58;;;;;;;;;;;;;;;2.55;41.13;100896.38;5047871;28;19990;-82
2023/02/10 00:24:24;;;;;;;;;;;;;;;2.54;40.85;100887.78;5061475;28;19928;-82
2023/02/10 00:26:49;;;;;;;;;;;;;;;2.53;41.10;100888.66;5047835;28;20442;-84
2023/02/10 00:29:15;;;;;;;;;;;;;;;2.53;40.98;100892.94;5047935;28;20394;-83
2023/02/10 00:31:40;;;;;;;;;;;;;;;2.51;41.06;100898.16;5061914;28;19917;-82
2023/02/10 00:34:05;;;;;;;;;;;;;;;2.51;41.00;100898.16;5064879;28;19924;-82
2023/02/10 00:36:31;;;;;;;;;;;;;;;2.51;40.93;100899.84;5047946;28;20284;-81
2023/02/10 00:38:56;;;;;;;;;;;;;;;2.50;40.93;100891.28;5047668;28;20015;-81
2023/02/10 00:41:22;;;;;;;;;;;;;;;2.48;41.20;100894.72;5047168;28;20003;-82
2023/02/10 00:43:47;;;;;;;;;;;;;;;2.48;40.89;100876.66;5045441;28;19960;-81
2023/02/10 00:46:13;;;;;;;;;;;;;;;2.46;41.33;100888.72;5047610;28;19931;-83
2023/02/10 00:48:38;;;;;;;;;;;;;;;2.42;40.91;100877.59;5047663;28;19916;-83
2023/02/10 00:51:04;;;;;;;;;;;;;;;2.40;41.11;100869.00;5046799;28;19916;-83
2023/02/10 00:53:29;;;;;;;;;;;;;;;2.39;41.31;100872.47;5062147;28;19917;-83
2023/02/10 00:55:55;;;;;;;;;;;;;;;2.38;40.81;100869.91;5046092;28;19932;-84
2023/02/10 00:58:20;;;;;;;;;;;;;;;2.36;40.68;100869.91;5052507;28;20461;-80
2023/02/10 01:00:45;;;;;;;;;;;;;;;2.32;40.73;100865.63;5047420;28;20357;-80
2023/02/10 01:03:11;;;;;;;;;;;;;;;2.29;41.11;100863.09;5062653;28;20383;-80
2023/02/10 01:05:36;;;;;;;;;;;;;;;2.27;40.68;100854.53;5047763;28;19967;-80
2023/02/10 01:08:01;;;;;;;;;;;;;;;2.26;41.04;100864.00;5047134;28;19916;-81
2023/02/10 01:10:34;;;;;;;;;;;;;;;2.22;41.08;100849.41;5044911;28;19924;-80
2023/02/10 01:12:59;;;;;;;;;;;;;;;2.20;40.86;100853.72;5061267;28;19928;-80
2023/02/10 01:15:25;;;;;;;;;;;;;;;2.17;40.99;100853.75;5065797;28;19916;-79
2023/02/10 01:17:51;;;;;;;;;;;;;;;2.16;40.77;100849.44;5062488;28;20323;-80
2023/02/10 01:20:17;;;;;;;;;;;;;;;2.14;41.00;100846.03;5044579;28;19917;-81
2023/02/10 01:22:42;;;;;;;;;;;;;;;2.11;41.02;100831.44;5064512;28;19920;-80
2023/02/10 01:25:07;;;;;;;;;;;;;;;2.09;41.29;100843.50;5049914;28;19921;-80
2023/02/10 01:27:32;;;;;;;;;;;;;;;2.07;40.96;100846.94;5065466;28;20699;-81
2023/02/10 01:29:58;;;;;;;;;;;;;;;2.04;41.13;100847.84;5051292;28;20413;-79
2023/02/10 01:32:23;;;;;;;;;;;;;;;2.02;40.75;100846.97;5049742;28;19920;-79
2023/02/10 01:34:48;;;;;;;;;;;;;;;1.99;41.22;100844.41;5082426;28;20004;-81
2023/02/10 01:37:14;;;;;;;;;;;;;;;1.97;41.32;100841.00;5049946;28;19916;-82
2023/02/10 01:39:39;;;;;;;;;;;;;;;1.95;41.34;100842.75;5051702;28;19924;-80
2023/02/10 01:42:07;;;;;;;;;;;;;;;1.92;41.47;100838.47;5063688;28;19967;-80
2023/02/10 01:44:32;;;;;;;;;;;;;;;1.90;40.90;100853.06;5065503;28;19916;-81
2023/02/10 01:46:57;;;;;;;;;;;;;;;1.88;40.69;100849.66;5083987;28;20387;-81
2023/02/10 01:49:27;;;;;;;;;;;;;;;1.86;41.13;100842.81;5063535;28;19952;-81
2023/02/10 01:51:52;;;;;;;;;;;;;;;1.84;40.67;100839.41;5048347;28;19916;-79
2023/02/10 01:54:19;;;;;;;;;;;;;;;1.82;40.82;100844.56;5065427;28;19924;-79
2023/02/10 01:56:44;;;;;;;;;;;;;;;1.79;40.76;100842.84;5049129;28;20393;-80
2023/02/10 01:59:10;;;;;;;;;;;;;;;1.77;40.87;100834.28;5064359;28;19958;-80
2023/02/10 02:01:35;;;;;;;;;;;;;;;1.75;41.38;100835.13;5064537;28;19945;-81
2023/02/10 02:04:00;;;;;;;;;;;;;;;1.74;40.83;100833.41;5051333;28;20006;-81
2023/02/10 02:06:25;;;;;;;;;;;;;;;1.73;41.10;100835.16;5049587;28;19916;-82
2023/02/10 02:08:51;;;;;;;;;;;;;;;1.71;40.67;100824.03;5082803;28;19939;-82
2023/02/10 02:11:21;;;;;;;;;;;;;;;1.70;40.53;100822.28;5064813;28;20425;-80
2023/02/10 02:14:04;;;;;;;;;;;;;;;1.69;41.15;100823.16;5049670;28;19924;-82
2023/02/10 02:16:48;;;;;;;;;;;;;;;1.68;40.47;100816.31;5065475;28;19916;-79
2023/02/10 02:19:36;;;;;;;;;;;;;;;1.67;41.01;100814.59;5082730;28;19927;-80
2023/02/10 02:22:04;;;;;;;;;;;;;;;1.66;40.49;100818.06;5065499;28;20390;-80
2023/02/10 02:24:37;;;;;;;;;;;;;;;1.65;41.09;100821.47;5063405;28;20313;-79
2023/02/10 02:27:02;;;;;;;;;;;;;;;1.65;40.32;100810.34;5051731;28;19920;-81
2023/02/10 02:29:27;;;;;;;;;;;;;;;1.65;40.71;100812.91;5063058;28;19924;-80
2023/02/10 02:31:56;;;;;;;;;;;;;;;1.65;40.21;100807.75;5063977;28;20321;-80
2023/02/10 02:34:27;;;;;;;;;;;;;;;1.65;40.09;100805.19;5064738;28;19924;-80
2023/02/10 02:36:54;;;;;;;;;;;;;;;1.64;40.28;100812.03;5063969;28;20050;-81
2023/02/10 02:39:19;;;;;;;;;;;;;;;1.64;40.15;100809.47;5063344;28;20363;-80
2023/02/10 02:41:44;;;;;;;;;;;;;;;1.64;40.10;100812.03;5065240;28;19965;-80
2023/02/10 02:44:10;;;;;;;;;;;;;;;1.62;40.88;100812.03;5047439;28;19917;-80
2023/02/10 02:46:35;;;;;;;;;;;;;;;1.61;40.15;100812.03;5063565;28;19916;-80
2023/02/10 02:49:19;;;;;;;;;;;;;;;1.60;40.27;100815.50;5064894;28;19935;-80
2023/02/10 02:51:47;;;;;;;;;;;;;;;1.60;40.07;100805.22;5082769;28;19920;-80
2023/02/10 02:54:26;;;;;;;;;;;;;;;1.59;40.12;100812.06;5063566;28;19925;-80
2023/02/10 02:57:12;;;;;;;;;;;;;;;1.59;39.87;100813.78;5049633;28;19925;-80
2023/02/10 02:59:42;;;;;;;;;;;;;;;1.60;40.42;100805.22;5081898;28;20003;-80
2023/02/10 03:02:11;;;;;;;;;;;;;;;1.60;39.92;100812.94;5065530;28;19916;-80
2023/02/10 03:04:36;;;;;;;;;;;;;;;1.59;40.48;100811.22;5065713;28;19921;-80
2023/02/10 03:07:01;;;;;;;;;;;;;;;1.58;39.95;100805.22;5062596;28;19920;-80
2023/02/10 03:09:27;;;;;;;;;;;;;;;1.57;40.18;100811.22;5065809;28;19974;-81
2023/02/10 03:11:52;;;;;;;;;;;;;;;1.58;39.90;100806.91;5060107;28;19927;-81
2023/02/10 03:14:18;;;;;;;;;;;;;;;1.57;39.73;100806.06;5062756;28;20390;-81
2023/02/10 03:16:43;;;;;;;;;;;;;;;1.57;39.80;100805.22;5082436;28;19920;-80
2023/02/10 03:19:08;;;;;;;;;;;;;;;1.56;40.15;100796.63;5045904;28;20444;-79
2023/02/10 03:21:34;;;;;;;;;;;;;;;1.54;39.87;100795.78;5046209;28;20314;-79
2023/02/10 03:24:00;;;;;;;;;;;;;;;1.53;40.52;100799.22;5064014;28;20330;-81
2023/02/10 03:26:26;;;;;;;;;;;;;;;1.52;40.35;100794.97;5063066;28;19921;-81
2023/02/10 03:28:52;;;;;;;;;;;;;;;1.52;39.73;100794.06;5047054;28;19950;-80
2023/02/10 03:31:17;;;;;;;;;;;;;;;1.51;40.03;100792.41;5062862;28;19992;-81
2023/02/10 03:33:42;;;;;;;;;;;;;;;1.50;39.69;100790.66;5049821;28;19955;-81
2023/02/10 03:36:08;;;;;;;;;;;;;;;1.49;39.58;100786.38;5062415;28;19916;-79
2023/02/10 03:38:33;;;;;;;;;;;;;;;1.47;40.34;100776.13;5062292;28;19917;-79
2023/02/10 03:40:58;;;;;;;;;;;;;;;1.47;40.05;100770.97;5062628;28;19916;-80
2023/02/10 03:43:24;;;;;;;;;;;;;;;1.47;39.74;100775.25;5064029;28;19920;-81
2023/02/10 03:45:49;;;;;;;;;;;;;;;1.46;39.50;100782.13;5065080;28;19916;-80
2023/02/10 03:48:15;;;;;;;;;;;;;;;1.45;39.63;100780.41;5067405;28;19949;-82
2023/02/10 03:50:40;;;;;;;;;;;;;;;1.44;39.50;100776.97;5086512;28;19919;-80
2023/02/10 03:53:06;;;;;;;;;;;;;;;1.43;39.41;100771.84;5053452;28;19939;-79
2023/02/10 03:55:31;;;;;;;;;;;;;;;1.44;39.39;100771.84;5054430;28;19952;-78
2023/02/10 03:57:56;;;;;;;;;;;;;;;1.43;39.48;100777.84;5067140;28;20450;-79
2023/02/10 04:00:22;;;;;;;;;;;;;;;1.43;39.44;100775.25;5067983;28;20430;-78
2023/02/10 04:02:47;;;;;;;;;;;;;;;1.42;39.46;100775.28;5067939;28;20399;-80
2023/02/10 04:05:12;;;;;;;;;;;;;;;1.39;39.47;100778.75;5052325;28;19920;-80
2023/02/10 04:07:38;;;;;;;;;;;;;;;1.40;39.59;100777.00;5066034;28;20011;-81
2023/02/10 04:10:03;;;;;;;;;;;;;;;1.39;39.39;100776.16;5068246;28;19916;-83
2023/02/10 04:12:29;;;;;;;;;;;;;;;1.39;39.49;100775.28;5049657;28;19943;-81
2023/02/10 04:14:54;;;;;;;;;;;;;;;1.39;39.96;100775.28;5051795;28;20007;-80
2023/02/10 04:17:19;;;;;;;;;;;;;;;1.37;39.50;100770.16;5065554;28;20363;-81
2023/02/10 04:19:44;;;;;;;;;;;;;;;1.38;39.27;100768.44;5053236;28;19920;-81
2023/02/10 04:22:10;;;;;;;;;;;;;;;1.37;39.55;100769.31;5049828;28;20299;-81
2023/02/10 04:24:35;;;;;;;;;;;;;;;1.36;39.74;100765.88;5047890;28;20411;-82
2023/02/10 04:27:00;;;;;;;;;;;;;;;1.35;39.54;100766.75;5062166;28;19959;-81
2023/02/10 04:29:26;;;;;;;;;;;;;;;1.34;40.01;100770.16;5064405;28;20379;-82
2023/02/10 04:31:51;;;;;;;;;;;;;;;1.33;39.50;100770.16;5045903;28;19917;-75
2023/02/10 04:34:16;;;;;;;;;;;;;;;1.32;39.25;100769.34;5063110;28;19966;-74
2023/02/10 04:36:42;;;;;;;;;;;;;;;1.32;39.54;100768.47;5047167;28;20349;-79
2023/02/10 04:39:07;;;;;;;;;;;;;;;1.32;39.22;100773.63;5061970;28;19917;-79
2023/02/10 04:41:32;;;;;;;;;;;;;;;1.30;39.44;100771.06;5046624;28;19921;-78
2023/02/10 04:43:58;;;;;;;;;;;;;;;1.29;39.96;100763.34;5063191;28;20414;-80
2023/02/10 04:46:23;;;;;;;;;;;;;;;1.26;39.29;100764.22;5062812;28;19917;-79
2023/02/10 04:48:48;;;;;;;;;;;;;;;1.25;39.44;100770.25;5065559;28;19924;-79
2023/02/10 04:51:13;;;;;;;;;;;;;;;1.22;39.52;100773.69;5045858;28;19923;-84
2023/02/10 04:53:39;;;;;;;;;;;;;;;1.22;39.41;100777.97;5050527;28;20451;-77
2023/02/10 04:56:05;;;;;;;;;;;;;;;1.35;49.08;100774.47;5066344;28;20480;-81
2023/02/10 04:58:30;;;;;;;;;;;;;;;1.42;47.58;100772.69;5053647;28;19917;-78
2023/02/10 05:00:56;;;;;;;;;;;;;;;1.41;46.72;100769.28;5062567;28;19924;-80
2023/02/10 05:03:21;;;;;;;;;;;;;;;1.37;45.95;100771.88;5069249;28;20380;-79
2023/02/10 05:05:46;;;;;;;;;;;;;;;1.33;45.19;100773.63;5076090;28;19924;-81
2023/02/10 05:08:12;;;;;;;;;;;;;;;1.29;44.75;100778.78;5053153;28;19924;-82
2023/02/10 05:10:37;;;;;;;;;;;;;;;1.26;44.53;100784.81;5046359;28;19916;-80
2023/02/10 05:13:02;;;;;;;;;;;;;;;1.35;55.77;100789.06;5061008;28;19921;-81
2023/02/10 05:15:28;;;;;;;;;;;;;;;1.44;50.90;100791.59;5046278;28;20003;-80
2023/02/10 05:17:53;;;;;;;;;;;;;;;1.46;49.90;100796.72;5047171;28;19987;-85
2023/02/10 05:20:18;;;;;;;;;;;;;;;1.43;49.10;100806.16;5061360;28;20437;-79
2023/02/10 05:22:44;;;;;;;;;;;;;;;1.38;48.97;100804.47;5060418;28;19917;-79
2023/02/10 05:25:09;;;;;;;;;;;;;;;1.36;48.27;100806.19;5053313;28;20407;-77
2023/02/10 05:27:34;;;;;;;;;;;;;;;1.33;47.27;100801.06;5051477;28;19920;-77
2023/02/10 05:30:00;;;;;;;;;;;;;;;1.32;46.48;100804.50;5050144;28;19916;-79
2023/02/10 05:32:25;;;;;;;;;;;;;;;1.30;46.03;100806.22;5063983;28;19927;-78
2023/02/10 05:34:51;;;;;;;;;;;;;;;1.36;46.16;100811.34;5050118;28;19924;-78
2023/02/10 05:37:16;;;;;;;;;;;;;;;1.70;57.33;100806.00;5048279;28;19939;-81
2023/02/10 05:39:41;;;;;;;;;;;;;;;1.99;50.07;100813.50;5051296;28;19923;-78
2023/02/10 05:42:07;;;;;;;;;;;;;;;2.30;47.80;100808.94;5061247;28;20390;-80
2023/02/10 05:44:32;;;;;;;;;;;;;;;2.60;46.29;100803.53;5050868;28;19920;-80
2023/02/10 05:46:57;;;;;;;;;;;;;;;2.86;45.11;100814.41;5046602;28;20327;-81
2023/02/10 05:49:23;;;;;;;;;;;;;;;3.13;44.35;100811.50;5056845;28;19919;-81
2023/02/10 05:51:48;;;;;;;;;;;;;;;3.38;44.68;100812.91;5060664;28;19921;-81
2023/02/10 05:54:13;;;;;;;;;;;;;;;3.63;44.10;100821.16;5048855;28;20459;-79
2023/02/10 05:56:39;;;;;;;;;;;;;;;3.88;43.08;100817.38;5063616;28;20357;-85
2023/02/10 05:59:04;;;;;;;;;;;;;;;4.10;42.60;100808.41;5085230;28;20011;-78
2023/02/10 06:01:31;;;;;;;;;;;;;;;4.30;42.02;100817.53;5048324;28;20453;-81
2023/02/10 06:03:56;;;;;;;;;;;;;;;4.48;41.16;100813.81;5049970;28;20043;-76
2023/02/10 06:06:22;;;;;;;;;;;;;;;4.70;40.06;100815.09;5094019;28;19916;-78
2023/02/10 06:08:47;;;;;;;;;;;;;;;4.92;39.15;100813.84;5059433;28;19916;-77
2023/02/10 06:11:12;;;;;;;;;;;;;;;5.27;38.31;100820.91;5055595;28;20387;-82
2023/02/10 06:13:39;;;;;;;;;;;;;;;5.91;47.93;100813.41;5058619;28;19937;-78
2023/02/10 06:16:04;;;;;;;;;;;;;;;6.74;62.05;100810.50;5059050;28;20374;-78
2023/02/10 06:18:30;;;;;;;;;;;;;;;7.72;60.00;100811.13;5055490;28;19974;-82
2023/02/10 06:20:56;;;;;;;;;;;;;;;8.29;43.31;100809.28;5056013;28;20395;-82
2023/02/10 06:23:23;;;;;;;;;;;;;;;8.68;38.64;100801.00;5039887;28;20360;-79
2023/02/10 06:25:54;;;;;;;;;;;;;;;9.11;43.44;100812.50;5056308;28;19921;-80
2023/02/10 06:28:28;;;;;;;;;;;;;;;9.65;36.27;100807.84;5072343;28;19917;-78
2023/02/10 06:30:54;;;;;;;;;;;;;;;10.07;34.48;100793.13;5070418;28;19923;-79
2023/02/10 06:33:19;;;;;;;;;;;;;;;10.53;33.57;100804.28;5038895;28;20003;-79
2023/02/10 06:35:45;;;;;;;;;;;;;;;10.98;30.97;100803.16;5073322;28;19967;-77
2023/02/10 06:38:10;;;;;;;;;;;;;;;12.48;51.30;100812.59;5044234;28;20016;-79
2023/02/10 06:40:36;;;;;;;;;;;;;;;13.78;43.93;100808.31;5056097;28;19921;-80
2023/02/10 06:43:01;;;;;;;;;;;;;;;14.05;33.64;100807.66;5054608;28;19940;-78
2023/02/10 06:45:27;;;;;;;;;;;;;;;14.29;30.14;100795.75;5072197;28;19920;-80
2023/02/10 06:47:52;;;;;;;;;;;;;;;14.60;27.75;100804.44;5073095;28;20414;-79
2023/02/10 06:50:18;;;;;;;;;;;;;;;15.22;25.00;100810.34;5055422;28;20302;-78
2023/02/10 06:52:43;;;;;;;;;;;;;;;15.82;22.83;100811.81;5055236;28;19917;-81
2023/02/10 06:55:09;;;;;;;;;;;;;;;16.58;23.85;100813.75;5055391;28;19928;-73
2023/02/10 06:57:37;;;;;;;;;;;;;;;17.69;26.77;100810.41;5072160;28;19982;-79
2023/02/10 07:00:07;;;;;;;;;;;;;;;18.57;22.64;100812.63;5055551;28;19924;-78
2023/02/10 07:02:32;;;;;;;;;;;;;;;19.60;20.56;100816.09;5063083;28;19958;-80
2023/02/10 07:04:58;;;;;;;;;;;;;;;20.82;23.68;100830.72;5081461;28;19973;-77
2023/02/10 07:07:23;;;;;;;;;;;;;;;21.54;20.93;100815.59;5081160;28;19954;-77
2023/02/10 07:09:48;;;;;;;;;;;;;;;22.02;17.84;100814.78;5056196;28;20302;-82
2023/02/10 07:12:14;;;;;;;;;;;;;;;22.35;17.09;100814.50;5047562;28;19920;-73
2023/02/10 07:14:39;;;;;;;;;;;;;;;22.45;16.16;100809.16;5081166;28;20382;-71
2023/02/10 07:17:04;;;;;;;;;;;;;;;22.83;20.66;100815.34;5059346;28;19932;-79
2023/02/10 07:19:30;;;;;;;;;;;;;;;22.80;20.51;100821.78;5063998;28;19955;-71
2023/02/10 07:21:55;;;;;;;;;;;;;;;22.41;20.95;100821.91;5063586;28;20026;-72
2023/02/10 07:24:21;;;;;;;;;;;;;;;21.77;18.80;100824.16;5079539;28;20378;-74
2023/02/10 07:26:46;;;;;;;;;;;;;;;21.79;27.97;100826.66;5076647;28;19921;-78
2023/02/10 07:29:11;;;;;;;;;;;;;;;21.55;26.49;100835.88;5048771;28;19916;-81
2023/02/10 07:31:37;;;;;;;;;;;;;;;21.40;23.91;100827.44;5049273;28;19946;-78
2023/02/10 07:34:02;;;;;;;;;;;;;;;21.13;21.22;100822.75;5056730;28;19920;-77
2023/02/10 07:36:28;;;;;;;;;;;;;;;20.99;21.00;100823.13;5074136;28;19919;-76
2023/02/10 07:38:53;;;;;;;;;;;;;;;20.91;21.58;100815.81;5058000;28;19920;-76
2023/02/10 07:41:18;;;;;;;;;;;;;;;20.68;18.31;100815.97;5061730;28;19920;-78
2023/02/10 07:43:44;;;;;;;;;;;;;;;20.47;17.68;100817.78;5083469;28;19917;-83
2023/02/10 07:46:09;;;;;;;;;;;;;;;20.32;17.03;100810.16;5047735;28;19917;-77
2023/02/10 07:48:34;;;;;;;;;;;;;;;20.24;16.86;100812.59;5047393;28;19921;-76
2023/02/10 07:51:00;;;;;;;;;;;;;;;20.23;16.11;100816.25;5062582;28;19916;-76
2023/02/10 07:53:25;;;;;;;;;;;;;;;20.25;15.49;100812.47;5064193;28;19924;-75
2023/02/10 07:55:50;;;;;;;;;;;;;;;20.38;15.36;100808.78;5045376;28;19932;-76
2023/02/10 07:58:15;;;;;;;;;;;;;;;20.57;14.83;100811.56;5047852;28;19920;-74
2023/02/10 08:00:41;;;;;;;;;;;;;;;20.61;14.56;100817.44;5061688;28;20337;-78
2023/02/10 08:03:06;;;;;;;;;;;;;;;20.75;14.60;100811.81;5053112;28;19928;-77
2023/02/10 08:05:31;;;;;;;;;;;;;;;20.77;14.11;100817.00;5044992;28;20440;-77
2023/02/10 08:07:59;;;;;;;;;;;;;;;20.74;14.13;100807.47;5042209;28;19916;-77
2023/02/10 08:10:25;;;;;;;;;;;;;;;20.80;14.05;100808.78;5081828;28;20358;-75
2023/02/10 08:12:50;;;;;;;;;;;;;;;20.76;13.98;100807.34;5075571;28;19955;-75
2023/02/10 08:15:16;;;;;;;;;;;;;;;20.83;14.06;100810.34;5054100;28;19916;-76
2023/02/10 08:17:42;;;;;;;;;;;;;;;20.91;13.78;100810.50;5038964;28;19924;-76
2023/02/10 08:20:08;;;;;;;;;;;;;;;20.97;13.66;100796.69;5045553;28;19920;-74
2023/02/10 08:22:34;;;;;;;;;;;;;;;20.99;13.87;100804.53;5047213;28;19924;-72
2023/02/10 08:24:59;;;;;;;;;;;;;;;21.04;13.71;100802.31;5047958;28;19920;-72
2023/02/10 08:27:24;;;;;;;;;;;;;;;21.17;13.54;100797.56;5059725;28;20010;-77
2023/02/10 08:29:50;;;;;;;;;;;;;;;21.19;13.57;100803.63;5063356;28;19924;-72
2023/02/10 08:32:18;;;;;;;;;;;;;;;21.24;13.14;100806.69;5055023;28;19920;-76
2023/02/10 08:34:53;;;;;;;;;;;;;;;21.22;13.24;100802.47;5054048;28;19963;-73
2023/02/10 08:37:18;;;;;;;;;;;;;;;21.39;23.37;100807.13;5053042;28;20394;-80
2023/02/10 08:39:43;;;;;;;;;;;;;;;21.49;19.69;100810.69;5084488;28;19928;-78
2023/02/10 08:42:10;;;;;;;;;;;;;;;21.62;24.21;100806.94;5046854;28;20455;-80
2023/02/10 08:44:35;;;;;;;;;;;;;;;21.66;19.97;100800.34;5043860;28;19917;-78
2023/02/10 08:47:01;;;;;;;;;;;;;;;21.77;18.77;100807.38;5062634;28;19921;-74
2023/02/10 08:49:27;;;;;;;;;;;;;;;21.86;17.43;100802.03;5055776;28;19963;-77
2023/02/10 08:51:53;;;;;;;;;;;;;;;21.91;16.58;100793.66;5056634;28;19916;-77
2023/02/10 08:54:19;;;;;;;;;;;;;;;22.02;16.29;100795.31;5051085;28;19924;-77
2023/02/10 08:56:44;;;;;;;;;;;;;;;22.17;15.75;100804.56;5071241;28;19932;-78
2023/02/10 08:59:10;;;;;;;;;;;;;;;22.32;15.68;100797.00;5089583;28;19923;-79
2023/02/10 09:01:35;;;;;;;;;;;;;;;22.36;14.59;100801.06;5070170;28;19920;-82
2023/02/10 09:04:01;;;;;;;;;;;;;;;22.44;20.63;100796.81;5051111;28;20701;-80
2023/02/10 09:06:30;;;;;;;;;;;;;;;22.52;29.23;100803.13;5051658;28;19920;-76
2023/02/10 09:08:55;;;;;;;;;;;;;;;22.69;29.04;100806.00;5064427;28;20011;-78
2023/02/10 09:11:22;;;;;;;;;;;;;;;22.80;27.77;100803.16;5047117;28;20023;-78
2023/02/10 09:13:47;;;;;;;;;;;;;;;22.93;27.50;100805.50;5066081;28;20024;-74
2023/02/10 09:16:13;;;;;;;;;;;;;;;23.07;27.48;100797.03;5047148;28;20406;-77
2023/02/10 09:18:38;;;;;;;;;;;;;;;23.19;27.14;100788.84;5047528;28;19960;-77
2023/02/10 09:21:04;;;;;;;;;;;;;;;23.26;26.31;100784.59;5049414;28;19923;-75
2023/02/10 09:23:29;;;;;;;;;;;;;;;23.35;25.97;100789.03;5047175;28;20379;-79
2023/02/10 09:25:56;;;;;;;;;;;;;;;23.47;25.84;100787.81;5050737;28;19917;-74
2023/02/10 09:28:23;;;;;;;;;;;;;;;24.12;21.39;100775.25;5087144;28;19924;-78
2023/02/10 09:30:48;;;;;;;;;;;;;;;25.05;23.64;100777.28;5057772;28;19924;-75
2023/02/10 09:33:14;;;;;;;;;;;;;;;26.39;18.12;100764.69;5043682;28;19921;-79
2023/02/10 09:35:41;;;;;;;;;;;;;;;27.56;14.36;100763.03;5066358;28;19916;-75
2023/02/10 09:38:08;;;;;;;;;;;;;;;28.29;12.31;100762.56;5093353;28;19916;-76
2023/02/10 09:40:37;;;;;;;;;;;;;;;28.47;11.62;100749.59;5059870;28;20319;-76
2023/02/10 09:43:22;;;;;;;;;;;;;;;28.06;11.51;100746.53;5076279;28;19963;-77
2023/02/10 09:45:48;;;;;;;;;;;;;;;27.09;11.27;100734.47;5067565;28;19927;-77
2023/02/10 09:48:25;;;;;;;;;;;;;;;26.18;17.29;100742.81;5070663;28;19963;-73
2023/02/10 09:50:53;;;;;;;;;;;;;;;25.48;14.47;100740.66;5064349;28;20015;-74
2023/02/10 09:53:23;;;;;;;;;;;;;;;25.14;18.60;100730.88;5066430;28;19970;-76
2023/02/10 09:55:59;;;;;;;;;;;;;;;25.03;16.11;100733.84;5039934;28;19924;-76
2023/02/10 09:58:31;;;;;;;;;;;;;;;25.00;23.73;100732.34;5058491;28;19917;-78
2023/02/10 10:01:02;;;;;;;;;;;;;;;24.86;25.24;100735.63;5074031;28;20011;-80
2023/02/10 10:03:30;;;;;;;;;;;;;;;24.95;23.96;100729.31;5073621;28;19917;-73
2023/02/10 10:05:59;;;;;;;;;;;;;;;25.05;22.29;100722.00;5045174;28;19928;-74
2023/02/10 10:08:34;;;;;;;;;;;;;;;24.99;20.49;100709.28;5093815;28;19963;-78
2023/02/10 10:11:04;;;;;;;;;;;;;;;24.80;19.51;100709.59;5076361;28;19923;-73
2023/02/10 10:13:29;;;;;;;;;;;;;;;24.52;16.46;100704.41;5076495;28;19916;-78
2023/02/10 10:16:14;;;;;;;;;;;;;;;24.09;14.86;100700.88;5069338;28;19920;-80
2023/02/10 10:18:54;;;;;;;;;;;;;;;23.74;13.48;100695.44;5063121;28;19978;-83
2023/02/10 10:21:22;;;;;;;;;;;;;;;23.23;13.43;100686.31;5064263;28;19917;-78
2023/02/10 10:24:07;;;;;;;;;;;;;;;22.83;12.97;100685.69;5067835;28;20019;-80
2023/02/10 10:27:07;;;;;;;;;;;;;;;22.38;11.44;100674.03;5061697;28;19921;-75
2023/02/10 10:29:39;;;;;;;;;;;;;;;21.82;12.05;100670.41;4971176;28;20613;-77
2023/02/10 10:32:13;;;;;;;;;;;;;;;21.45;12.64;100675.59;4978471;28;20434;-76
2023/02/10 10:34:41;;;;;;;;;;;;;;;21.27;12.74;100678.94;4972184;28;19977;-75
2023/02/10 10:37:11;;;;;;;;;;;;;;;21.18;13.47;100671.81;4957995;28;19918;-83
2023/02/10 10:39:43;;;;;;;;;;;;;;;21.12;13.68;100673.19;4959592;28;19957;-86
2023/02/10 10:42:15;;;;;;;;;;;;;;;20.88;13.58;100678.06;4961912;28;20001;-85
2023/02/10 10:44:40;;;;;;;;;;;;;;;20.59;13.39;100670.81;4959748;28;19934;-85
2023/02/10 10:47:08;;;;;;;;;;;;;;;20.41;13.05;100668.81;4961632;28;19972;-73
2023/02/10 10:49:36;;;;;;;;;;;;;;;20.32;15.69;100664.31;4940759;28;20386;-72
2023/02/10 10:52:02;;;;;;;;;;;;;;;20.23;22.79;100662.44;4956103;28;19924;-72
2023/02/10 10:54:27;;;;;;;;;;;;;;;20.17;27.44;100673.56;4956083;28;20408;-73
2023/02/10 10:57:02;;;;;;;;;;;;;;;20.04;28.60;100669.31;4955961;28;19929;-71
2023/02/10 10:59:45;;;;;;;;;;;;;;;19.86;27.80;100660.28;4940484;28;19918;-78
2023/02/10 11:02:20;;;;;;;;;;;;;;;19.81;28.53;100657.19;4957795;28;19918;-75
2023/02/10 11:04:46;;;;;;;;;;;;;;;19.65;22.69;100653.13;5051385;28;19924;-70
2023/02/10 11:07:18;;;;;;;;;;;;;;;19.42;19.84;100649.78;5051769;28;19916;-71
2023/02/10 11:09:50;;;;;;;;;;;;;;;19.08;18.13;100643.78;5051541;28;19977;-71
2023/02/10 11:12:16;;;;;;;;;;;;;;;18.83;17.27;100644.91;5034550;28;19916;-71
2023/02/10 11:14:42;;;;;;;;;;;;;;;18.63;16.29;100648.19;5053101;28;20283;-73
2023/02/10 11:17:18;;;;;;;;;;;;;;;18.41;16.00;100641.09;5051514;28;19917;-71
2023/02/10 11:19:51;;;;;;;;;;;;;;;18.16;15.58;100633.44;5034787;28;19921;-71
2023/02/10 11:22:18;;;;;;;;;;;;;;;17.96;15.74;100629.69;5034971;28;19917;-72
2023/02/10 11:24:51;;;;;;;;;;;;;;;17.71;17.71;100627.09;5034429;28;20356;-71
2023/02/10 11:27:16;;;;;;;;;;;;;;;17.48;16.46;100620.06;5049378;28;20358;-70
2023/02/10 11:29:49;;;;;;;;;;;;;;;17.22;16.66;100614.09;5050785;28;19916;-70
2023/02/10 11:32:24;;;;;;;;;;;;;;;16.98;19.51;100622.84;5050155;28;19920;-72
2023/02/10 11:34:50;;;;;;;;;;;;;;;16.67;17.36;100617.16;5051496;28;20027;-70
2023/02/10 11:37:28;;;;;;;;;;;;;;;16.38;17.01;100613.94;5051325;28;20395;-70
2023/02/10 11:39:54;;;;;;;;;;;;;;;16.20;27.14;100614.28;5051239;28;19927;-71
2023/02/10 11:42:26;;;;;;;;;;;;;;;16.14;25.40;100611.25;5051270;28;19916;-71
2023/02/10 11:45:12;;;;;;;;;;;;;;;15.90;21.52;100604.94;5051496;28;19974;-71
2023/02/10 11:47:37;;;;;;;;;;;;;;;15.64;19.37;100608.47;5038024;28;20371;-68
2023/02/10 11:50:03;;;;;;;;;;;;;;;15.38;30.99;100603.19;5052299;28;19983;-70
2023/02/10 11:52:33;;;;;;;;;;;;;;;15.42;35.71;100614.31;5054236;28;19917;-69
2023/02/10 11:54:59;;;;;;;;;;;;;;;15.41;33.19;100600.34;5051673;28;19924;-73
2023/02/10 12:00:38;;;;;;;;;;;;;;;15.24;26.31;100590.94;5052453;28;20449;-71
2023/02/10 12:03:14;;;;;;;;;;;;;;;14.85;21.75;100574.22;5060251;28;19927;-73
2023/02/10 12:05:54;;;;;;;;;;;;;;;14.56;22.08;100576.88;5055133;28;20306;-71
2023/02/10 12:08:29;;;;;;;;;;;;;;;14.31;20.48;100582.84;5051181;28;19920;-70
2023/02/10 12:11:14;;;;;;;;;;;;;;;14.02;20.53;100579.41;5064185;28;19921;-73
2023/02/10 12:13:59;;;;;;;;;;;;;;;13.88;20.40;100578.47;5049405;28;19943;-72
2023/02/10 12:16:27;;;;;;;;;;;;;;;13.72;20.07;100577.69;5055124;28;19917;-72
2023/02/10 12:18:52;;;;;;;;;;;;;;;13.53;20.30;100577.94;5056198;28;19917;-79
2023/02/10 12:21:36;;;;;;;;;;;;;;;13.44;20.05;100574.09;5056203;28;19975;-78
2023/02/10 12:24:04;;;;;;;;;;;;;;;13.24;20.19;100566.53;5055301;28;19920;-77
2023/02/10 12:26:33;;;;;;;;;;;;;;;13.13;20.21;100569.75;5054715;28;19916;-70
2023/02/10 12:29:18;;;;;;;;;;;;;;;12.97;20.17;100564.56;5053848;28;20411;-71
2023/02/10 12:31:44;;;;;;;;;;;;;;;12.75;19.91;100557.06;5053203;28;19920;-70
2023/02/10 12:34:15;;;;;;;;;;;;;;;12.70;20.43;100557.31;5053311;28;19916;-69
2023/02/10 12:36:50;;;;;;;;;;;;;;;12.59;20.30;100550.06;5053303;28;20065;-72
2023/02/10 12:39:22;;;;;;;;;;;;;;;12.43;19.70;100557.91;5035682;28;20005;-74
2023/02/10 12:41:50;;;;;;;;;;;;;;;12.23;20.27;100558.16;5052112;28;19939;-72
2023/02/10 12:44:34;;;;;;;;;;;;;;;12.08;20.52;100550.22;5054767;28;19916;-73
2023/02/10 12:47:05;;;;;;;;;;;;;;;11.98;20.41;100554.22;5054565;28;19917;-71